• Join FlightAware (Why Join?)
  • Login
  • US Flag 
09:02PM EDT


 

Airport Tracker/Info


-or-


 

Live Flight TrackerFlight Track Log ✈ ACA603 ✈ 24-Apr-2013 ✈ CYHZ - CYYZ

Flight Track Log - Related Links

Times and Time Zones

All times are in EDT time to prevent confusion due to time zone crossing. See the ACA603 flight status page for this flight to view local times or setup timezone preferences in your user account.

Time Position Orientation Groundspeed Altitude Reporting Facility
EDT Latitude Longitude Course Direction KTS MPH feet Rate Location/Type
04:47AM 44.8667 -63.4833 295° West 120 138 1,000  Level Moncton Center
04:48AM 44.8500 -63.4333 115° Southeast 140 161 3,600 1,620 Climbing Moncton Center
04:49AM 44.8167 -63.4333 180° South 180 207 4,300 1,380 Climbing Moncton Center
04:50AM 44.7833 -63.5000 235° Southwest 250 288 6,400 2,520 Climbing Moncton Center
04:51AM 45.0230 -64.0539 294° West  Level FlightAware Approximate
04:51AM 44.8167 -63.6000 295° West 290 334 9,400  Level Moncton Center
04:52AM 45.0654 -64.1915 294° West  Level FlightAware Approximate
04:52AM 44.8667 -63.6833 310° West 310 357 11,900  Level Moncton Center
04:53AM 45.1044 -64.3297 295° West  Level FlightAware Approximate
04:53AM 44.9333 -63.8000 309° West 310 357 14,400  Level Moncton Center
04:54AM 44.9667 -63.9000 295° West 310 357 16,700 2,160 Climbing Moncton Center
04:55AM 45.0000 -64.0000 295° West 300 345 18,800 1,800 Climbing Moncton Center
04:56AM 45.0333 -64.1333 290° West 320 368 20,300 1,440 Climbing Moncton Center
04:57AM 45.0667 -64.2500 292° West 330 380 21,700 1,200 Climbing Moncton Center
04:58AM 45.1000 -64.4000 288° West 360 414 22,700 1,200 Climbing Moncton Center
04:59AM 45.1167 -64.5333 280° West 370 426 24,100 1,320 Climbing Moncton Center
05:00AM 45.1333 -64.6833 279° West 380 437 25,400 1,200 Climbing Moncton Center
05:01AM 45.1667 -64.8167 290° West 390 449 26,600 1,200 Climbing Moncton Center
05:02AM 45.1833 -64.9833 278° West 400 460 27,800 1,140 Climbing Moncton Center
05:03AM 45.2000 -65.1500 278° West 400 460 28,900 1,140 Climbing Moncton Center
05:04AM 45.2167 -65.3000 279° West 410 472 30,100 1,200 Climbing Moncton Center
05:05AM 45.2500 -65.4667 286° West 410 472 31,400 1,260 Climbing Moncton Center
05:06AM 45.2667 -65.6167 279° West 400 460 32,700 1,200 Climbing Moncton Center
05:07AM 45.2833 -65.7833 278° West 400 460 33,900 600 Climbing Moncton Center
05:08AM 45.3000 -65.9167 280° West 390 449 34,000  Climbing Moncton Center
05:09AM 45.3167 -66.0667 279° West 390 449 34,000  Level Moncton Center
05:10AM 45.3500 -66.2333 286° West 400 460 34,000  Level Moncton Center
05:11AM 45.3500 -66.4000 270° West 400 460 34,000  Level Moncton Center
05:12AM 45.3667 -66.5333 280° West 400 460 34,000  Level Moncton Center
05:13AM 45.3833 -66.7000 278° West 400 460 34,000  Level Moncton Center
05:14AM 45.4000 -66.8500 279° West 400 460 34,000  Level Moncton Center
05:15AM 45.4333 -67.0167 286° West 400 460 34,000  Level Moncton Center
05:16AM 45.4333 -67.1667 270° West 400 460 34,000  Level Moncton Center
05:17AM 45.4500 -67.3333 278° West 400 460 34,000  Level Moncton Center
05:18AM 45.4667 -67.4667 280° West 400 460 34,000  Level Moncton Center
05:19AM 45.5000 -67.6500 285° West 400 460 34,000  Level Moncton Center
05:20AM 45.5092 -67.7217 280° West 406 467 34,000  Level Boston Center
05:21AM 45.5258 -67.8803 279° West 406 467 34,000  Level Boston Center
05:21AM 45.5167 -67.9500 259° West 400 460 34,000  Level Moncton Center
05:22AM 45.5333 -68.1167 278° West 400 460 34,000  Level Moncton Center
05:23AM 45.5561 -68.1803 297° West 406 467 34,000  Level Boston Center
05:24AM 45.5700 -68.3394 277° West 406 467 34,000  Level Boston Center
05:25AM 45.5861 -68.4986 278° West 406 467 34,000  Level Boston Center
05:26AM 45.6017 -68.6608 278° West 406 467 34,000  Level Boston Center
05:27AM 45.6214 -68.8197 280° West 406 467 34,000  Level Boston Center
05:27AM 45.6167 -68.9167 266° West 410 472 34,000  Level Moncton Center
05:28AM 45.6389 -68.9789 297° West 406 467 34,000  Level Boston Center
05:29AM 45.6558 -69.1353 279° West 406 467 34,000  Level Boston Center
05:30AM 45.6728 -69.2947 279° West 406 467 34,000  Level Boston Center
05:30AM 45.6667 -69.4000 265° West 410 472 34,000  Level Moncton Center
05:31AM 45.6833 -69.5500 279° West 400 460 34,000  Level Moncton Center
05:32AM 45.7000 -69.7167 278° West 400 460 34,000  Level Moncton Center
05:33AM 45.7222 -69.7739 299° West 406 467 34,000  Level Boston Center
05:34AM 45.7403 -69.9336 279° West 406 467 34,000  Level Boston Center
05:35AM 45.7561 -70.0933 278° West 406 467 34,000  Level Boston Center
05:36AM 45.7717 -70.2533 278° West 406 467 34,000  Level Boston Center
05:37AM 45.7850 -70.4106 277° West 406 467 34,000  Level Boston Center
05:37AM 45.7667 -70.4333 221° Southwest 400 460 34,000  Level Montreal Center
05:38AM 45.7667 -70.6000 270° West 390 449 34,000 -300 Level Montreal Center
05:39AM 45.7500 -70.7833 263° West 400 460 33,400 -540 Descending Montreal Center
05:40AM 45.7333 -70.9167 260° West 410 472 33,000 -240 Descending Montreal Center
05:41AM 45.7333 -71.1000 270° West 410 472 33,000  Level Montreal Center
05:42AM 45.7167 -71.2667 262° West 410 472 33,000  Level Montreal Center
05:43AM 45.7167 -71.4000 270° West 420 483 33,000 -540 Level Montreal Center
05:44AM 45.6833 -71.5833 255° West 420 483 32,000 -540 Descending Montreal Center
05:45AM 45.6833 -71.7500 270° West 420 483 32,000  Level Montreal Center
05:46AM 45.6667 -71.9167 262° West 430 495 32,000  Level Montreal Center
05:47AM 45.6500 -72.0833 262° West 410 472 32,000  Level Montreal Center
05:48AM 45.6500 -72.2333 270° West 400 460 32,000  Level Montreal Center
05:49AM 45.6333 -72.4000 262° West 400 460 32,000  Level Montreal Center
05:50AM 45.6167 -72.5667 262° West 400 460 32,000  Level Montreal Center
05:51AM 45.6167 -72.7167 270° West 400 460 32,000  Level Montreal Center
05:52AM 45.6167 -72.8833 270° West 390 449 32,000  Level Montreal Center
05:53AM 45.6000 -73.0167 260° West 390 449 32,000  Level Montreal Center
05:54AM 45.6000 -73.1833 270° West 390 449 32,000  Level Montreal Center
05:55AM 45.6167 -73.3500 278° West 390 449 32,000  Level Montreal Center
05:56AM 45.6167 -73.5000 270° West 390 449 32,000  Level Montreal Center
05:57AM 45.6000 -73.6667 262° West 390 449 32,000  Level Montreal Center
05:58AM 45.6000 -73.8167 270° West 390 449 32,100  Climbing Montreal Center
05:59AM 45.6000 -73.9833 270° West 380 437 32,000 -120 Descending Montreal Center
06:00AM 45.5833 -74.1167 260° West 380 437 31,900  Descending Montreal Center
06:01AM 45.5667 -74.2667 261° West 370 426 32,000  Climbing Montreal Center
06:02AM 45.5333 -74.3833 248° West 370 426 32,000  Level Montreal Center
06:03AM 45.5167 -74.5500 262° West 370 426 32,000  Level Montreal Center
06:04AM 45.5000 -74.6833 260° West 370 426 32,000  Level Montreal Center
06:05AM 45.4667 -74.8500 254° West 370 426 32,000  Level Montreal Center
06:06AM 45.4500 -74.9667 259° West 370 426 32,000  Level Montreal Center
06:07AM 45.4167 -75.1167 252° West 370 426 32,000  Level Montreal Center
06:08AM 45.4000 -75.2500 260° West 360 414 32,000  Level Montreal Center
06:09AM 45.3667 -75.4000 252° West 360 414 32,000  Level Montreal Center
06:10AM 45.3500 -75.5333 260° West 360 414 32,000  Level Montreal Center
06:11AM 45.3333 -75.6833 261° West 360 414 32,000  Level Montreal Center
06:12AM 45.3000 -75.8333 253° West 360 414 32,000  Level Montreal Center
06:13AM 45.2833 -75.9667 260° West 360 414 32,000  Level Montreal Center
06:14AM 45.2667 -76.0833 259° West 360 414 32,000  Level Montreal Center
06:15AM 45.2167 -76.2333 245° Southwest 360 414 32,000  Level Montreal Center
06:16AM 45.1667 -76.3500 239° Southwest 360 414 32,000  Level Montreal Center
06:17AM 45.1000 -76.4500 227° Southwest 360 414 32,000  Level Toronto Center
06:18AM 45.0333 -76.5333 221° Southwest 370 426 32,000  Level Toronto Center
06:19AM 44.9833 -76.6833 245° Southwest 360 414 32,000  Level Montreal Center
06:20AM 44.9000 -76.7667 215° Southwest 370 426 32,000  Level Montreal Center
06:21AM 44.8500 -76.8833 239° Southwest 360 414 32,000  Level Montreal Center
06:22AM 44.7833 -77.0000 231° Southwest 360 414 32,000  Level Montreal Center
06:23AM 44.7333 -77.1167 239° Southwest 360 414 32,000  Level Montreal Center
06:24AM 44.6833 -77.2333 239° Southwest 360 414 32,000  Level Montreal Center
06:25AM 44.6333 -77.3500 239° Southwest 360 414 32,000  Level Montreal Center
06:26AM 44.5833 -77.4833 242° Southwest 360 414 32,000  Level Toronto Center
06:27AM 44.5333 -77.5667 230° Southwest 350 403 32,000 -120 Level Toronto Center
06:28AM 44.4833 -77.7167 245° Southwest 350 403 31,800 -720 Descending Toronto Center
06:29AM 44.4333 -77.8333 239° Southwest 360 414 30,600 -2,460 Descending Toronto Center
06:30AM 44.3833 -77.9500 239° Southwest 370 426 26,900 -3,300 Descending Toronto Center
06:31AM 44.3167 -78.1000 238° Southwest 390 449 24,000 -2,700 Descending Toronto Center
06:32AM 44.2667 -78.2167 239° Southwest 380 437 21,500 -2,580 Descending Toronto Center
06:33AM 44.2167 -78.3333 239° Southwest 370 426 18,900 -2,460 Descending Toronto Center
06:34AM 44.1667 -78.4500 239° Southwest 370 426 16,600 -2,400 Descending Toronto Center
06:35AM 44.1333 -78.5833 251° West 360 414 14,100 -2,400 Descending Toronto Center
06:36AM 44.0833 -78.6833 235° Southwest 350 403 11,900 -1,680 Descending Toronto Center
06:37AM 44.0333 -78.8000 239° Southwest 330 380 10,800 -960 Descending Toronto Center
06:38AM 43.9667 -78.8667 216° Southwest 280 322 10,000 -1,200 Descending Toronto Center
06:39AM 43.9333 -78.9333 235° Southwest 250 288 8,500 -1,380 Descending Toronto Center
06:40AM 43.8833 -79.0000 224° Southwest 240 276 7,300 -900 Descending Toronto Center
06:41AM 43.8667 -79.0833 255° West 210 242 6,700 -840 Descending Toronto Center
06:42AM 43.8500 -79.1667 255° West 220 253 5,700 -840 Descending Toronto Center
06:43AM 43.8333 -79.2333 251° West 200 230 5,100 -600 Descending Toronto Center
06:44AM 43.8167 -79.3167 255° West 190 219 4,500 -600 Descending Toronto Center
06:45AM 43.7833 -79.3833 235° Southwest 190 219 3,900 -660 Descending Toronto Center
06:46AM 43.7667 -79.4333 245° Southwest 180 207 3,200 -660 Descending Toronto Center
06:47AM 43.7333 -79.4667 216° Southwest 160 184 2,600 -660 Descending Toronto Center
06:48AM 43.7167 -79.5167 245° Southwest 140 161 1,900 -720 Descending Toronto Center
06:49AM 43.6833 -79.5333 200° South 130 150 1,200 -720 Descending Toronto Center